Climatologie pour Saint-Brevin les Pins
Jour • Résumé pour janvier 11, 2017 Système :  Métrique    Anglais   Mixte
« - 1 jour
+ 1 jour »
Jour Semaine Mois Année Personnalisé
  Maximum : Minimum : Moyenne :
Température sous abri : 12.7 °C 6.2 °C 9.8 °C
Point de rosée : 11.6 °C 5.3 °C 8.7 °C
Humidité : 98 % 82 % 93 %
Vitesse du vent : 19.3 km/h 0.0 km/h 5.3 km/h
Rafale : 27.4 km/h - -
Direction :- - WNW
Pression : 1022.9 hPa 1017.2 hPa -
Précipitations : 0.3 mm    
Historical Graphs
 
 
Tableau de données pour janvier 11, 2017
Heure Tempé Pt rosée Pression Vent Vitesse Rafale Humidité Taux pluie (/hr) Soleil
00:00 9.3 °C 8.4 °C 1018.2 hPa WNW 4.8 km/h 9.7 km/h 94 % 0.0 mm 0 W/m2
00:05 9.2 °C 8.3 °C 1018.2 hPa WNW 1.6 km/h 9.7 km/h 94 % 0.0 mm 0 W/m2
00:10 9.2 °C 8.3 °C 1018.2 hPa Calm   6.4 km/h 94 % 0.0 mm 0 W/m2
00:15 9.1 °C 8.1 °C 1018.2 hPa WNW 3.2 km/h 6.4 km/h 94 % 0.0 mm 0 W/m2
00:20 9.0 °C 8.1 °C 1018.2 hPa WNW 1.6 km/h 6.4 km/h 94 % 0.0 mm 0 W/m2
00:25 8.9 °C 8.0 °C 1018.2 hPa Calm   6.4 km/h 94 % 0.0 mm 0 W/m2
00:30 8.8 °C 7.9 °C 1018.2 hPa WNW 3.2 km/h 6.4 km/h 94 % 0.0 mm 0 W/m2
00:35 8.7 °C 7.8 °C 1018.2 hPa WNW 1.6 km/h 4.8 km/h 94 % 0.0 mm 0 W/m2
00:40 8.6 °C 7.5 °C 1018.2 hPa Calm   4.8 km/h 93 % 0.0 mm 0 W/m2
00:45 8.5 °C 7.4 °C 1018.2 hPa Calm   4.8 km/h 93 % 0.0 mm 0 W/m2
00:50 8.4 °C 7.5 °C 1018.2 hPa WNW 1.6 km/h 4.8 km/h 94 % 0.0 mm 0 W/m2
00:55 8.4 °C 7.5 °C 1018.2 hPa WNW 3.2 km/h 4.8 km/h 94 % 0.0 mm 0 W/m2
01:00 8.3 °C 7.4 °C 1018.2 hPa Calm   4.8 km/h 94 % 0.0 mm 0 W/m2
01:05 8.3 °C 7.4 °C 1017.8 hPa Calm   4.8 km/h 94 % 0.0 mm 0 W/m2
01:10 8.4 °C 7.5 °C 1017.8 hPa Calm   9.7 km/h 94 % 0.0 mm 0 W/m2
01:15 8.6 °C 7.9 °C 1017.8 hPa WNW 8.0 km/h 12.9 km/h 95 % 0.0 mm 0 W/m2
01:20 8.8 °C 8.1 °C 1017.8 hPa WNW 8.0 km/h 12.9 km/h 95 % 0.0 mm 0 W/m2
01:25 9.0 °C 8.4 °C 1017.8 hPa WNW 6.4 km/h 11.3 km/h 96 % 0.0 mm 0 W/m2
01:30 9.1 °C 8.5 °C 1017.8 hPa NW 6.4 km/h 12.9 km/h 96 % 0.0 mm 0 W/m2
01:35 9.2 °C 8.6 °C 1017.8 hPa WNW 11.3 km/h 17.7 km/h 96 % 0.0 mm 0 W/m2
01:40 9.3 °C 8.7 °C 1017.8 hPa WNW 6.4 km/h 17.7 km/h 96 % 0.0 mm 0 W/m2
01:45 9.4 °C 8.8 °C 1018.2 hPa WNW 8.0 km/h 12.9 km/h 96 % 0.0 mm 0 W/m2
01:50 9.5 °C 8.9 °C 1018.2 hPa NW 4.8 km/h 11.3 km/h 96 % 0.0 mm 0 W/m2
01:55 9.5 °C 8.9 °C 1017.8 hPa NW 4.8 km/h 11.3 km/h 96 % 0.0 mm 0 W/m2
02:00 9.5 °C 8.9 °C 1017.8 hPa NW 3.2 km/h 12.9 km/h 96 % 0.0 mm 0 W/m2
02:05 9.4 °C 8.8 °C 1017.8 hPa NNW 9.7 km/h 12.9 km/h 96 % 0.0 mm 0 W/m2
02:10 9.3 °C 8.7 °C 1017.8 hPa NW 6.4 km/h 11.3 km/h 96 % 0.0 mm 0 W/m2
02:15 9.3 °C 8.7 °C 1018.2 hPa NNW 3.2 km/h 11.3 km/h 96 % 0.0 mm 0 W/m2
02:20 9.2 °C 8.6 °C 1018.2 hPa NW 3.2 km/h 11.3 km/h 96 % 0.0 mm 0 W/m2
02:25 9.2 °C 8.6 °C 1018.2 hPa Calm   11.3 km/h 96 % 0.0 mm 0 W/m2
02:30 9.1 °C 8.5 °C 1017.8 hPa Calm   8.0 km/h 96 % 0.0 mm 0 W/m2
02:35 8.9 °C 8.3 °C 1018.2 hPa NNW 4.8 km/h 9.7 km/h 96 % 0.0 mm 0 W/m2
02:40 8.8 °C 8.2 °C 1018.2 hPa WNW 3.2 km/h 11.3 km/h 96 % 0.0 mm 0 W/m2
02:45 8.7 °C 8.1 °C 1018.2 hPa NW 4.8 km/h 11.3 km/h 96 % 0.0 mm 0 W/m2
02:50 8.6 °C 8.0 °C 1017.8 hPa Calm   11.3 km/h 96 % 0.0 mm 0 W/m2
02:55 8.6 °C 8.0 °C 1017.8 hPa WNW 6.4 km/h 8.0 km/h 96 % 0.0 mm 0 W/m2
03:00 8.4 °C 7.8 °C 1017.8 hPa Calm   8.0 km/h 96 % 0.0 mm 0 W/m2
03:05 8.3 °C 7.5 °C 1017.5 hPa NW 1.6 km/h 6.4 km/h 95 % 0.0 mm 0 W/m2
03:10 8.2 °C 7.4 °C 1017.8 hPa Calm   6.4 km/h 95 % 0.0 mm 0 W/m2
03:15 7.9 °C 7.2 °C 1017.8 hPa Calm   1.6 km/h 95 % 0.0 mm 0 W/m2
03:20 7.8 °C 7.0 °C 1017.8 hPa Calm   1.6 km/h 95 % 0.0 mm 0 W/m2
03:25 7.6 °C 6.9 °C 1017.8 hPa Calm   1.6 km/h 95 % 0.0 mm 0 W/m2
03:30 7.4 °C 6.7 °C 1017.8 hPa Calm   1.6 km/h 95 % 0.0 mm 0 W/m2
03:35 7.3 °C 6.6 °C 1017.8 hPa Calm     95 % 0.0 mm 0 W/m2
03:40 7.2 °C 6.5 °C 1017.8 hPa NW 1.6 km/h 3.2 km/h 95 % 0.0 mm 0 W/m2
03:45 7.1 °C 6.4 °C 1017.8 hPa Calm   6.4 km/h 95 % 0.0 mm 0 W/m2
03:50 6.9 °C 6.2 °C 1017.8 hPa Calm   6.4 km/h 95 % 0.0 mm 0 W/m2
03:55 6.8 °C 6.1 °C 1017.8 hPa Calm   4.8 km/h 95 % 0.0 mm 0 W/m2
04:00 6.7 °C 5.8 °C 1017.8 hPa Calm   1.6 km/h 94 % 0.0 mm 0 W/m2
04:05 6.6 °C 5.7 °C 1017.8 hPa Calm   3.2 km/h 94 % 0.0 mm 0 W/m2
04:10 6.5 °C 5.6 °C 1017.8 hPa Calm   3.2 km/h 94 % 0.0 mm 0 W/m2
04:15 6.3 °C 5.4 °C 1017.8 hPa Calm   4.8 km/h 94 % 0.0 mm 0 W/m2
04:20 6.3 °C 5.4 °C 1017.8 hPa Calm   4.8 km/h 94 % 0.0 mm 0 W/m2
04:25 6.2 °C 5.3 °C 1018.2 hPa NW 6.4 km/h 6.4 km/h 94 % 0.0 mm 0 W/m2
04:30 6.2 °C 5.4 °C 1017.8 hPa Calm   6.4 km/h 95 % 0.0 mm 0 W/m2
04:35 6.2 °C 5.4 °C 1017.8 hPa Calm   6.4 km/h 95 % 0.0 mm 0 W/m2
04:40 6.2 °C 5.4 °C 1017.8 hPa NW 3.2 km/h 4.8 km/h 95 % 0.0 mm 0 W/m2
04:50 6.5 °C 5.9 °C 1017.5 hPa WNW 6.4 km/h 9.7 km/h 96 % 0.0 mm 0 W/m2
04:55 6.9 °C 6.4 °C 1017.5 hPa WNW 3.2 km/h 9.7 km/h 97 % 0.0 mm 0 W/m2
05:00 7.2 °C 6.7 °C 1017.5 hPa WNW 4.8 km/h 9.7 km/h 97 % 0.0 mm 0 W/m2
05:10 7.7 °C 7.3 °C 1017.5 hPa WNW 1.6 km/h 9.7 km/h 97 % 0.0 mm 0 W/m2
05:15 8.0 °C 7.6 °C 1017.5 hPa West 1.6 km/h 9.7 km/h 97 % 0.0 mm 0 W/m2
05:20 8.2 °C 7.8 °C 1017.5 hPa West 1.6 km/h 9.7 km/h 97 % 0.0 mm 0 W/m2
05:25 8.4 °C 8.0 °C 1017.5 hPa West 4.8 km/h 11.3 km/h 97 % 0.0 mm 0 W/m2
05:30 8.7 °C 8.3 °C 1017.8 hPa WNW 8.0 km/h 11.3 km/h 97 % 0.0 mm 0 W/m2
05:35 8.9 °C 8.4 °C 1017.8 hPa WNW 4.8 km/h 12.9 km/h 97 % 0.0 mm 0 W/m2
05:40 9.0 °C 8.5 °C 1017.5 hPa NW 4.8 km/h 12.9 km/h 97 % 0.0 mm 0 W/m2
05:45 9.2 °C 8.9 °C 1017.5 hPa West 6.4 km/h 12.9 km/h 98 % 0.0 mm 0 W/m2
05:50 9.3 °C 9.0 °C 1017.5 hPa WNW 6.4 km/h 12.9 km/h 98 % 0.0 mm 0 W/m2
05:55 9.3 °C 8.9 °C 1017.5 hPa WNW 3.2 km/h 12.9 km/h 97 % 0.0 mm 0 W/m2
06:00 9.4 °C 9.0 °C 1017.5 hPa West 4.8 km/h 11.3 km/h 97 % 0.0 mm 0 W/m2
06:05 9.4 °C 9.0 °C 1017.5 hPa WNW 3.2 km/h 12.9 km/h 97 % 0.0 mm 0 W/m2
06:15 9.6 °C 9.3 °C 1017.5 hPa NW 3.2 km/h 12.9 km/h 98 % 0.0 mm 0 W/m2
06:20 9.6 °C 9.3 °C 1017.5 hPa West 4.8 km/h 12.9 km/h 98 % 0.0 mm 0 W/m2
06:25 9.6 °C 9.3 °C 1017.5 hPa WSW 1.6 km/h 12.9 km/h 98 % 0.0 mm 0 W/m2
06:30 9.7 °C 9.4 °C 1017.5 hPa West 8.0 km/h 12.9 km/h 98 % 0.0 mm 0 W/m2
06:35 9.7 °C 9.4 °C 1017.5 hPa West 3.2 km/h 12.9 km/h 98 % 0.0 mm 0 W/m2
06:40 9.7 °C 9.4 °C 1017.5 hPa West 3.2 km/h 11.3 km/h 98 % 0.0 mm 0 W/m2
06:45 9.7 °C 9.4 °C 1017.5 hPa West 3.2 km/h 11.3 km/h 98 % 0.0 mm 0 W/m2
06:50 9.7 °C 9.4 °C 1017.5 hPa West 9.7 km/h 11.3 km/h 98 % 0.0 mm 0 W/m2
06:55 9.8 °C 9.5 °C 1017.2 hPa WSW 4.8 km/h 14.5 km/h 98 % 0.0 mm 0 W/m2
07:00 9.8 °C 9.5 °C 1017.2 hPa West 4.8 km/h 14.5 km/h 98 % 0.0 mm 0 W/m2
07:05 9.8 °C 9.5 °C 1017.2 hPa West 4.8 km/h 16.1 km/h 98 % 0.0 mm 0 W/m2
07:10 9.9 °C 9.6 °C 1017.2 hPa West 9.7 km/h 16.1 km/h 98 % 0.0 mm 0 W/m2
07:15 9.9 °C 9.6 °C 1017.5 hPa WSW 3.2 km/h 12.9 km/h 98 % 0.0 mm 0 W/m2
07:20 9.9 °C 9.6 °C 1017.5 hPa West 4.8 km/h 12.9 km/h 98 % 0.0 mm 0 W/m2
07:25 9.9 °C 9.6 °C 1017.5 hPa West 4.8 km/h 12.9 km/h 98 % 0.0 mm 0 W/m2
07:30 9.9 °C 9.6 °C 1017.5 hPa WNW 3.2 km/h 11.3 km/h 98 % 0.0 mm 0 W/m2
07:35 9.9 °C 9.6 °C 1017.5 hPa West 8.0 km/h 12.9 km/h 98 % 0.0 mm 0 W/m2
07:40 9.9 °C 9.6 °C 1017.5 hPa WNW 6.4 km/h 12.9 km/h 98 % 0.0 mm 0 W/m2
07:45 10.0 °C 9.7 °C 1017.5 hPa NW 4.8 km/h 12.9 km/h 98 % 0.0 mm 0 W/m2
07:50 10.1 °C 9.8 °C 1017.8 hPa WNW 9.7 km/h 14.5 km/h 98 % 0.0 mm 0 W/m2
07:55 10.2 °C 9.9 °C 1017.8 hPa WNW 8.0 km/h 16.1 km/h 98 % 0.0 mm 0 W/m2
08:00 10.2 °C 9.9 °C 1017.8 hPa NW 8.0 km/h 16.1 km/h 98 % 0.0 mm 0 W/m2
08:05 10.3 °C 10.0 °C 1017.8 hPa NW 8.0 km/h 16.1 km/h 98 % 0.0 mm 0 W/m2
08:10 10.3 °C 10.0 °C 1017.8 hPa WNW 9.7 km/h 16.1 km/h 98 % 0.0 mm 0 W/m2
08:15 10.3 °C 10.0 °C 1017.8 hPa WNW 11.3 km/h 16.1 km/h 98 % 0.0 mm 0 W/m2
08:20 10.3 °C 10.0 °C 1017.8 hPa WNW 14.5 km/h 16.1 km/h 98 % 0.0 mm 0 W/m2
08:25 10.3 °C 10.0 °C 1017.8 hPa NW 11.3 km/h 17.7 km/h 98 % 0.0 mm 0 W/m2
08:30 10.3 °C 10.0 °C 1017.8 hPa WNW 4.8 km/h 17.7 km/h 98 % 0.0 mm 0 W/m2
08:35 10.3 °C 10.0 °C 1017.8 hPa West 9.7 km/h 14.5 km/h 98 % 0.0 mm 0 W/m2
08:40 10.3 °C 10.0 °C 1018.2 hPa WNW 4.8 km/h 14.5 km/h 98 % 0.0 mm 0 W/m2
08:45 10.2 °C 9.9 °C 1018.2 hPa WNW 4.8 km/h 12.9 km/h 98 % 0.0 mm 0 W/m2
08:50 10.2 °C 9.9 °C 1018.2 hPa WNW 8.0 km/h 12.9 km/h 98 % 0.0 mm 0 W/m2
08:55 10.2 °C 9.9 °C 1018.2 hPa WNW 6.4 km/h 11.3 km/h 98 % 0.0 mm 0 W/m2
09:00 10.1 °C 9.8 °C 1018.2 hPa WNW 9.7 km/h 9.7 km/h 98 % 0.0 mm 5 W/m2
09:05 10.1 °C 9.8 °C 1018.2 hPa WNW 6.4 km/h 12.9 km/h 98 % 0.0 mm 9 W/m2
09:10 9.9 °C 9.6 °C 1018.2 hPa WNW 9.7 km/h 14.5 km/h 98 % 0.0 mm 11 W/m2
09:15 9.9 °C 9.6 °C 1018.2 hPa West 4.8 km/h 14.5 km/h 98 % 0.0 mm 11 W/m2
09:20 9.8 °C 9.5 °C 1018.5 hPa WNW 4.8 km/h 12.9 km/h 98 % 0.0 mm 30 W/m2
09:25 9.8 °C 9.5 °C 1018.5 hPa WNW 11.3 km/h 14.5 km/h 98 % 0.0 mm 23 W/m2
09:30 9.8 °C 9.5 °C 1018.5 hPa WNW 6.4 km/h 14.5 km/h 98 % 0.0 mm 21 W/m2
09:35 9.9 °C 9.6 °C 1018.5 hPa WNW 6.4 km/h 12.9 km/h 98 % 0.0 mm 19 W/m2
09:40 9.9 °C 9.6 °C 1018.5 hPa WNW 4.8 km/h 12.9 km/h 98 % 0.0 mm 25 W/m2
09:45 9.9 °C 9.6 °C 1018.5 hPa WNW 6.4 km/h 14.5 km/h 98 % 0.0 mm 28 W/m2
09:50 10.0 °C 9.7 °C 1018.5 hPa West 6.4 km/h 14.5 km/h 98 % 0.0 mm 28 W/m2
09:55 10.0 °C 9.7 °C 1018.5 hPa West 4.8 km/h 14.5 km/h 98 % 0.0 mm 35 W/m2
10:00 10.0 °C 9.7 °C 1018.5 hPa WNW 9.7 km/h 12.9 km/h 98 % 0.0 mm 35 W/m2
10:05 10.0 °C 9.7 °C 1018.5 hPa WNW 4.8 km/h 16.1 km/h 98 % 0.0 mm 53 W/m2
10:10 10.0 °C 9.7 °C 1018.8 hPa West 6.4 km/h 19.3 km/h 98 % 0.0 mm 62 W/m2
10:15 10.0 °C 9.7 °C 1018.8 hPa WNW 6.4 km/h 19.3 km/h 98 % 0.0 mm 67 W/m2
10:20 10.0 °C 9.7 °C 1018.8 hPa West 1.6 km/h 16.1 km/h 98 % 0.0 mm 54 W/m2
10:25 10.0 °C 9.7 °C 1018.8 hPa SW 9.7 km/h 19.3 km/h 98 % 0.0 mm 65 W/m2
10:30 10.1 °C 9.8 °C 1018.8 hPa WNW 4.8 km/h 19.3 km/h 98 % 0.0 mm 185 W/m2
10:35 10.4 °C 10.1 °C 1018.8 hPa West 6.4 km/h 17.7 km/h 98 % 0.0 mm 241 W/m2
10:40 10.6 °C 10.3 °C 1018.8 hPa NW 4.8 km/h 17.7 km/h 98 % 0.0 mm 79 W/m2
10:45 10.4 °C 10.1 °C 1018.8 hPa West 9.7 km/h 14.5 km/h 98 % 0.0 mm 72 W/m2
10:50 10.4 °C 10.1 °C 1018.8 hPa West 6.4 km/h 14.5 km/h 98 % 0.0 mm 79 W/m2
10:55 10.4 °C 10.1 °C 1019.2 hPa West 8.0 km/h 12.9 km/h 98 % 0.0 mm 70 W/m2
11:00 10.5 °C 10.2 °C 1019.2 hPa WNW 4.8 km/h 14.5 km/h 98 % 0.0 mm 60 W/m2
11:05 10.6 °C 10.3 °C 1019.2 hPa NW 9.7 km/h 16.1 km/h 98 % 0.0 mm 62 W/m2
11:10 10.7 °C 10.4 °C 1019.2 hPa West 6.4 km/h 16.1 km/h 98 % 0.0 mm 70 W/m2
11:15 10.8 °C 10.5 °C 1019.2 hPa West 8.0 km/h 17.7 km/h 98 % 0.0 mm 88 W/m2
11:20 10.9 °C 10.6 °C 1019.5 hPa West 14.5 km/h 24.1 km/h 98 % 0.0 mm 95 W/m2
11:30 11.0 °C 10.7 °C 1019.5 hPa WNW 6.4 km/h 25.7 km/h 98 % 0.3 mm 77 W/m2
11:35 10.9 °C 10.6 °C 1019.5 hPa NNW 14.5 km/h 27.4 km/h 98 % 0.3 mm 118 W/m2
11:40 11.2 °C 10.9 °C 1019.5 hPa NW 14.5 km/h 27.4 km/h 98 % 0.3 mm 316 W/m2
11:45 11.7 °C 11.4 °C 1019.5 hPa West 14.5 km/h 24.1 km/h 98 % 0.3 mm 381 W/m2
11:50 11.5 °C 11.0 °C 1019.5 hPa West 11.3 km/h 19.3 km/h 97 % 0.3 mm 74 W/m2
11:55 11.3 °C 10.8 °C 1019.5 hPa WNW 14.5 km/h 22.5 km/h 97 % 0.3 mm 139 W/m2
12:00 11.3 °C 10.9 °C 1019.5 hPa WNW 19.3 km/h 22.5 km/h 97 % 0.3 mm 165 W/m2
12:05 11.4 °C 10.9 °C 1019.5 hPa NW 4.8 km/h 19.3 km/h 97 % 0.3 mm 132 W/m2
12:10 11.4 °C 10.9 °C 1019.2 hPa NW 14.5 km/h 16.1 km/h 97 % 0.3 mm 192 W/m2
12:15 11.4 °C 11.0 °C 1019.2 hPa West 8.0 km/h 16.1 km/h 97 % 0.3 mm 271 W/m2
12:20 11.8 °C 11.3 °C 1019.5 hPa WNW 8.0 km/h 14.5 km/h 97 % 0.3 mm 153 W/m2
12:25 11.6 °C 11.2 °C 1019.2 hPa West 11.3 km/h 14.5 km/h 97 % 0.0 mm 134 W/m2
12:30 11.6 °C 11.2 °C 1019.2 hPa West 12.9 km/h 14.5 km/h 97 % 0.0 mm 223 W/m2
12:35 11.7 °C 11.1 °C 1019.2 hPa WNW 11.3 km/h 16.1 km/h 96 % 0.0 mm 186 W/m2
12:40 11.6 °C 11.0 °C 1019.2 hPa West 6.4 km/h 16.1 km/h 96 % 0.0 mm 139 W/m2
12:45 11.6 °C 10.9 °C 1019.2 hPa West 9.7 km/h 17.7 km/h 96 % 0.0 mm 134 W/m2
12:50 11.5 °C 10.9 °C 1019.2 hPa NW 4.8 km/h 17.7 km/h 96 % 0.0 mm 135 W/m2
12:55 11.5 °C 10.9 °C 1019.2 hPa West 11.3 km/h 16.1 km/h 96 % 0.0 mm 123 W/m2
13:00 11.5 °C 10.9 °C 1019.2 hPa SW 9.7 km/h 20.9 km/h 96 % 0.0 mm 125 W/m2
13:05 11.4 °C 10.8 °C 1019.2 hPa NW 9.7 km/h 20.9 km/h 96 % 0.0 mm 113 W/m2
13:15 11.4 °C 10.8 °C 1019.2 hPa West 4.8 km/h 16.1 km/h 96 % 0.0 mm 179 W/m2
13:20 11.5 °C 10.9 °C 1018.8 hPa West 11.3 km/h 20.9 km/h 96 % 0.0 mm 142 W/m2
13:25 11.5 °C 10.9 °C 1018.8 hPa West 6.4 km/h 20.9 km/h 96 % 0.0 mm 172 W/m2
13:30 11.6 °C 11.0 °C 1018.8 hPa WSW 4.8 km/h 17.7 km/h 96 % 0.0 mm 188 W/m2
13:35 11.8 °C 11.0 °C 1018.8 hPa West 11.3 km/h 16.1 km/h 95 % 0.0 mm 179 W/m2
13:40 11.8 °C 11.0 °C 1018.8 hPa WNW 8.0 km/h 19.3 km/h 95 % 0.0 mm 225 W/m2
13:45 12.3 °C 11.6 °C 1018.8 hPa NW 8.0 km/h 19.3 km/h 95 % 0.0 mm 209 W/m2
13:50 12.2 °C 10.9 °C 1018.5 hPa WNW 6.4 km/h 27.4 km/h 92 % 0.0 mm 141 W/m2
13:55 12.1 °C 10.9 °C 1018.5 hPa West 8.0 km/h 27.4 km/h 92 % 0.0 mm 176 W/m2
14:00 12.1 °C 10.7 °C 1018.5 hPa NW 11.3 km/h 20.9 km/h 91 % 0.0 mm 220 W/m2
14:05 12.3 °C 10.7 °C 1018.8 hPa WNW 8.0 km/h 24.1 km/h 90 % 0.0 mm 213 W/m2
14:10 12.4 °C 10.6 °C 1018.8 hPa NNW 8.0 km/h 24.1 km/h 89 % 0.0 mm 193 W/m2
14:15 12.4 °C 10.5 °C 1018.5 hPa WNW 8.0 km/h 24.1 km/h 88 % 0.0 mm 178 W/m2
14:20 12.3 °C 10.3 °C 1018.8 hPa NW 8.0 km/h 20.9 km/h 88 % 0.0 mm 155 W/m2
14:25 12.3 °C 10.4 °C 1018.5 hPa NW 14.5 km/h 24.1 km/h 88 % 0.0 mm 197 W/m2
14:30 12.7 °C 10.6 °C 1018.5 hPa West 8.0 km/h 24.1 km/h 87 % 0.0 mm 204 W/m2
14:35 12.7 °C 10.4 °C 1018.5 hPa WNW 12.9 km/h 16.1 km/h 86 % 0.0 mm 149 W/m2
14:40 12.6 °C 10.3 °C 1018.5 hPa WNW 3.2 km/h 17.7 km/h 86 % 0.0 mm 141 W/m2
14:45 12.5 °C 10.0 °C 1018.5 hPa WNW 9.7 km/h 22.5 km/h 85 % 0.0 mm 132 W/m2
14:50 12.4 °C 9.9 °C 1018.5 hPa NW 11.3 km/h 22.5 km/h 85 % 0.0 mm 172 W/m2
14:55 12.5 °C 9.9 °C 1018.5 hPa NW 4.8 km/h 24.1 km/h 84 % 0.0 mm 151 W/m2
15:00 12.5 °C 9.7 °C 1018.5 hPa West 4.8 km/h 24.1 km/h 83 % 0.0 mm 146 W/m2
15:05 12.5 °C 9.9 °C 1018.5 hPa WNW 9.7 km/h 16.1 km/h 84 % 0.0 mm 114 W/m2
15:10 12.4 °C 9.8 °C 1018.5 hPa WNW 4.8 km/h 16.1 km/h 84 % 0.0 mm 114 W/m2
15:15 12.3 °C 9.9 °C 1018.5 hPa NNW 9.7 km/h 16.1 km/h 85 % 0.0 mm 121 W/m2
15:20 12.3 °C 9.7 °C 1018.5 hPa NW 11.3 km/h 14.5 km/h 84 % 0.0 mm 90 W/m2
15:25 12.1 °C 9.3 °C 1018.5 hPa WNW 11.3 km/h 19.3 km/h 83 % 0.0 mm 72 W/m2
15:30 12.1 °C 9.3 °C 1018.5 hPa West 4.8 km/h 19.3 km/h 83 % 0.0 mm 88 W/m2
15:35 12.1 °C 9.3 °C 1018.5 hPa NW 8.0 km/h 17.7 km/h 83 % 0.0 mm 102 W/m2
15:40 12.1 °C 9.4 °C 1018.5 hPa NNW 4.8 km/h 14.5 km/h 84 % 0.0 mm 93 W/m2
15:45 12.1 °C 9.4 °C 1018.8 hPa NW 11.3 km/h 17.7 km/h 84 % 0.0 mm 93 W/m2
15:50 12.1 °C 9.3 °C 1018.8 hPa NNE 6.4 km/h 17.7 km/h 83 % 0.0 mm 104 W/m2
15:55 12.1 °C 9.1 °C 1018.8 hPa WNW 12.9 km/h 19.3 km/h 82 % 0.0 mm 107 W/m2
16:00 11.9 °C 9.5 °C 1018.8 hPa NW 9.7 km/h 19.3 km/h 85 % 0.0 mm 104 W/m2
16:05 11.8 °C 9.5 °C 1019.2 hPa WNW 6.4 km/h 17.7 km/h 86 % 0.0 mm 83 W/m2
16:10 11.7 °C 9.6 °C 1019.2 hPa NW 8.0 km/h 17.7 km/h 87 % 0.0 mm 69 W/m2
16:15 11.6 °C 9.5 °C 1019.2 hPa NW 9.7 km/h 17.7 km/h 87 % 0.0 mm 70 W/m2
16:20 11.5 °C 9.6 °C 1019.2 hPa WNW 8.0 km/h 17.7 km/h 88 % 0.0 mm 40 W/m2
16:25 11.4 °C 9.5 °C 1019.5 hPa WNW 9.7 km/h 16.1 km/h 88 % 0.0 mm 40 W/m2
16:30 11.4 °C 9.5 °C 1019.5 hPa WNW 12.9 km/h 16.1 km/h 88 % 0.0 mm 35 W/m2
16:40 11.3 °C 9.2 °C 1019.5 hPa WNW 14.5 km/h 19.3 km/h 87 % 0.0 mm 37 W/m2
16:45 11.2 °C 9.1 °C 1019.9 hPa West 8.0 km/h 19.3 km/h 87 % 0.0 mm 28 W/m2
16:50 11.2 °C 9.0 °C 1019.5 hPa WNW 11.3 km/h 19.3 km/h 86 % 0.0 mm 19 W/m2
16:55 11.2 °C 9.1 °C 1019.9 hPa WNW 11.3 km/h 19.3 km/h 87 % 0.0 mm 14 W/m2
17:00 11.1 °C 9.0 °C 1019.9 hPa NW 8.0 km/h 19.3 km/h 87 % 0.0 mm 12 W/m2
17:05 11.1 °C 9.0 °C 1019.9 hPa NW 14.5 km/h 19.3 km/h 87 % 0.0 mm 16 W/m2
17:10 11.1 °C 9.0 °C 1020.2 hPa WNW 1.6 km/h 17.7 km/h 87 % 0.0 mm 9 W/m2
17:15 11.1 °C 9.0 °C 1020.2 hPa NW 4.8 km/h 17.7 km/h 87 % 0.0 mm 7 W/m2
17:20 11.0 °C 8.9 °C 1020.2 hPa NW 9.7 km/h 20.9 km/h 87 % 0.0 mm 7 W/m2
17:25 11.0 °C 8.9 °C 1020.2 hPa WNW 6.4 km/h 20.9 km/h 87 % 0.0 mm 7 W/m2
17:35 10.9 °C 8.8 °C 1020.2 hPa NW 9.7 km/h 17.7 km/h 87 % 0.0 mm 0 W/m2
17:40 10.9 °C 9.0 °C 1020.2 hPa WNW 6.4 km/h 19.3 km/h 88 % 0.0 mm 0 W/m2
17:45 10.8 °C 8.9 °C 1020.2 hPa NW 12.9 km/h 19.3 km/h 88 % 0.0 mm 0 W/m2
17:50 10.8 °C 8.9 °C 1020.5 hPa WNW 6.4 km/h 16.1 km/h 88 % 0.0 mm 0 W/m2
17:55 10.8 °C 8.9 °C 1020.2 hPa NW 3.2 km/h 16.1 km/h 88 % 0.0 mm 0 W/m2
18:00 10.8 °C 8.9 °C 1020.2 hPa NW 8.0 km/h 16.1 km/h 88 % 0.0 mm 0 W/m2
18:05 10.7 °C 8.8 °C 1020.2 hPa NW 4.8 km/h 12.9 km/h 88 % 0.0 mm 0 W/m2
18:10 10.7 °C 8.8 °C 1019.9 hPa NNW 3.2 km/h 9.7 km/h 88 % 0.0 mm 0 W/m2
18:15 10.6 °C 8.7 °C 1019.9 hPa North 1.6 km/h 8.0 km/h 88 % 0.0 mm 0 W/m2
18:20 10.5 °C 8.6 °C 1019.9 hPa Calm   8.0 km/h 88 % 0.0 mm 0 W/m2
18:25 10.4 °C 8.5 °C 1020.2 hPa Calm   4.8 km/h 88 % 0.0 mm 0 W/m2
18:30 10.3 °C 8.6 °C 1020.2 hPa WNW 1.6 km/h 6.4 km/h 89 % 0.0 mm 0 W/m2
18:35 10.3 °C 8.5 °C 1020.2 hPa WNW 4.8 km/h 6.4 km/h 89 % 0.0 mm 0 W/m2
18:40 10.2 °C 8.5 °C 1020.2 hPa NW 3.2 km/h 11.3 km/h 89 % 0.0 mm 0 W/m2
18:45 10.2 °C 8.4 °C 1020.2 hPa NW 1.6 km/h 11.3 km/h 89 % 0.0 mm 0 W/m2
18:50 10.1 °C 8.4 °C 1020.2 hPa NW 4.8 km/h 12.9 km/h 89 % 0.0 mm 0 W/m2
18:55 10.0 °C 8.3 °C 1020.5 hPa NW 4.8 km/h 12.9 km/h 89 % 0.0 mm 0 W/m2
19:00 9.9 °C 8.4 °C 1020.5 hPa NNW 4.8 km/h 12.9 km/h 90 % 0.0 mm 0 W/m2
19:05 9.9 °C 8.4 °C 1020.5 hPa NW 4.8 km/h 12.9 km/h 90 % 0.0 mm 0 W/m2
19:10 9.9 °C 8.3 °C 1020.9 hPa NNW 1.6 km/h 11.3 km/h 90 % 0.0 mm 0 W/m2
19:15 9.9 °C 8.3 °C 1020.9 hPa NW 3.2 km/h 8.0 km/h 90 % 0.0 mm 0 W/m2
19:20 9.8 °C 8.4 °C 1021.2 hPa NW 4.8 km/h 11.3 km/h 91 % 0.0 mm 0 W/m2
19:25 9.8 °C 8.3 °C 1021.2 hPa North 9.7 km/h 17.7 km/h 90 % 0.0 mm 0 W/m2
19:30 9.8 °C 8.2 °C 1021.2 hPa NW 4.8 km/h 17.7 km/h 90 % 0.0 mm 0 W/m2
19:35 9.8 °C 8.2 °C 1021.2 hPa NW 1.6 km/h 14.5 km/h 90 % 0.0 mm 0 W/m2
19:40 9.8 °C 8.2 °C 1021.6 hPa West 1.6 km/h 12.9 km/h 90 % 0.0 mm 0 W/m2
19:45 9.7 °C 8.2 °C 1021.6 hPa NW 3.2 km/h 9.7 km/h 90 % 0.0 mm 0 W/m2
19:50 9.7 °C 7.9 °C 1021.6 hPa Calm   9.7 km/h 89 % 0.0 mm 0 W/m2
19:55 9.7 °C 7.9 °C 1021.6 hPa NW 3.2 km/h 9.7 km/h 89 % 0.0 mm 0 W/m2
20:00 9.6 °C 7.9 °C 1021.6 hPa NNW 1.6 km/h 9.7 km/h 89 % 0.0 mm 0 W/m2
20:05 9.5 °C 7.6 °C 1021.6 hPa NW 6.4 km/h 14.5 km/h 88 % 0.0 mm 0 W/m2
20:10 9.4 °C 7.5 °C 1021.6 hPa NW 4.8 km/h 14.5 km/h 88 % 0.0 mm 0 W/m2
20:15 9.2 °C 7.2 °C 1021.6 hPa North 6.4 km/h 12.9 km/h 87 % 0.0 mm 0 W/m2
20:20 9.2 °C 7.1 °C 1021.6 hPa Calm   11.3 km/h 87 % 0.0 mm 0 W/m2
20:25 9.1 °C 7.1 °C 1021.6 hPa Calm   6.4 km/h 87 % 0.0 mm 0 W/m2
20:30 9.1 °C 6.8 °C 1021.6 hPa NNW 3.2 km/h 4.8 km/h 86 % 0.0 mm 0 W/m2
20:35 9.1 °C 7.0 °C 1021.6 hPa Calm   6.4 km/h 87 % 0.0 mm 0 W/m2
20:40 9.0 °C 7.0 °C 1021.6 hPa NNW 3.2 km/h 6.4 km/h 87 % 0.0 mm 0 W/m2
20:45 9.0 °C 7.0 °C 1021.6 hPa Calm   4.8 km/h 87 % 0.0 mm 0 W/m2
20:50 8.9 °C 6.9 °C 1021.6 hPa NW 1.6 km/h 4.8 km/h 87 % 0.0 mm 0 W/m2
20:55 8.9 °C 6.8 °C 1021.9 hPa Calm   4.8 km/h 87 % 0.0 mm 0 W/m2
21:00 8.9 °C 6.8 °C 1021.9 hPa Calm   4.8 km/h 87 % 0.0 mm 0 W/m2
21:05 8.8 °C 6.8 °C 1022.2 hPa WNW 3.2 km/h 8.0 km/h 87 % 0.0 mm 0 W/m2
21:10 8.8 °C 6.7 °C 1022.2 hPa WNW 4.8 km/h 8.0 km/h 87 % 0.0 mm 0 W/m2
21:15 8.8 °C 6.7 °C 1022.2 hPa WNW 3.2 km/h 8.0 km/h 87 % 0.0 mm 0 W/m2
21:20 8.8 °C 6.7 °C 1022.2 hPa WNW 3.2 km/h 8.0 km/h 87 % 0.0 mm 0 W/m2
21:25 8.7 °C 6.8 °C 1022.2 hPa Calm   8.0 km/h 88 % 0.0 mm 0 W/m2
21:30 8.7 °C 6.8 °C 1022.2 hPa WNW 1.6 km/h 8.0 km/h 88 % 0.0 mm 0 W/m2
21:35 8.7 °C 6.8 °C 1022.2 hPa WNW 6.4 km/h 8.0 km/h 88 % 0.0 mm 0 W/m2
21:40 8.8 °C 6.9 °C 1022.2 hPa NW 4.8 km/h 11.3 km/h 88 % 0.0 mm 0 W/m2
21:45 8.8 °C 6.9 °C 1022.2 hPa West 8.0 km/h 11.3 km/h 88 % 0.0 mm 0 W/m2
21:50 8.8 °C 6.9 °C 1022.2 hPa NW 8.0 km/h 11.3 km/h 88 % 0.0 mm 0 W/m2
21:55 8.8 °C 6.9 °C 1022.2 hPa NW 4.8 km/h 11.3 km/h 88 % 0.0 mm 0 W/m2
22:00 8.7 °C 6.8 °C 1021.9 hPa Calm   8.0 km/h 88 % 0.0 mm 0 W/m2
22:05 8.7 °C 6.8 °C 1022.2 hPa WNW 3.2 km/h 9.7 km/h 88 % 0.0 mm 0 W/m2
22:10 8.7 °C 6.7 °C 1021.9 hPa WNW 3.2 km/h 9.7 km/h 87 % 0.0 mm 0 W/m2
22:15 8.7 °C 6.6 °C 1022.2 hPa NW 4.8 km/h 8.0 km/h 87 % 0.0 mm 0 W/m2
22:20 8.7 °C 6.6 °C 1022.2 hPa Calm   8.0 km/h 87 % 0.0 mm 0 W/m2
22:25 8.6 °C 6.6 °C 1022.2 hPa Calm   6.4 km/h 87 % 0.0 mm 0 W/m2
22:30 8.6 °C 6.6 °C 1022.2 hPa Calm   4.8 km/h 87 % 0.0 mm 0 W/m2
22:35 8.6 °C 6.5 °C 1022.2 hPa NW 1.6 km/h 4.8 km/h 87 % 0.0 mm 0 W/m2
22:40 8.5 °C 6.5 °C 1022.2 hPa Calm   4.8 km/h 87 % 0.0 mm 0 W/m2
22:45 8.4 °C 6.4 °C 1022.6 hPa Calm   4.8 km/h 87 % 0.0 mm 0 W/m2
22:50 8.4 °C 6.3 °C 1022.6 hPa Calm   4.8 km/h 87 % 0.0 mm 0 W/m2
22:55 8.3 °C 6.3 °C 1022.6 hPa Calm   4.8 km/h 87 % 0.0 mm 0 W/m2
23:00 8.3 °C 6.2 °C 1022.2 hPa Calm   4.8 km/h 87 % 0.0 mm 0 W/m2
23:05 8.2 °C 6.2 °C 1022.2 hPa Calm   4.8 km/h 87 % 0.0 mm 0 W/m2
23:10 8.2 °C 6.3 °C 1022.2 hPa Calm   4.8 km/h 88 % 0.0 mm 0 W/m2
23:15 8.2 °C 6.3 °C 1022.6 hPa Calm   4.8 km/h 88 % 0.0 mm 0 W/m2
23:20 8.1 °C 6.2 °C 1022.6 hPa Calm   1.6 km/h 88 % 0.0 mm 0 W/m2
23:25 8.1 °C 6.2 °C 1022.6 hPa WNW 1.6 km/h 4.8 km/h 88 % 0.0 mm 0 W/m2
23:30 8.1 °C 6.2 °C 1022.6 hPa Calm   4.8 km/h 88 % 0.0 mm 0 W/m2
23:35 8.1 °C 6.4 °C 1022.6 hPa WNW 3.2 km/h 6.4 km/h 89 % 0.0 mm 0 W/m2
23:40 8.1 °C 6.4 °C 1022.9 hPa WNW 4.8 km/h 8.0 km/h 89 % 0.0 mm 0 W/m2
23:45 8.0 °C 6.3 °C 1022.9 hPa Calm   8.0 km/h 89 % 0.0 mm 0 W/m2
23:50 8.0 °C 6.3 °C 1022.6 hPa West 1.6 km/h 6.4 km/h 89 % 0.0 mm 0 W/m2
23:55 8.0 °C 6.3 °C 1022.9 hPa WNW 6.4 km/h 6.4 km/h 89 % 0.0 mm 0 W/m2
Avec l'autorisation de Weather Underground - 1.75 mb